Damme, Belgium
Current Conditions -  °F | °C
As of 7:25 AM on Tuesday 21 Oct 2014 (Local Time) from EHFS Reporting Station
Light Rain Light Rain  
Wind Chill: 57°   Ceiling: 4800
Heat Index: 57°   Visibility: 6mi
Dew Point: 54°   Wind: 24mph
Humidity: 88%   Direction: 200°SSW
Pressure: 29.71"   Gusts: NA
Location:  51.25°N, 3.28°E
Report Text: EHFS 210525Z AUTO 20021KT 9999 -RA FEW009/// SCT041///OVC048/// 14/12 Q1006
Loading
Personal Weather Stations






























Interactive Weather Map
Tropical Storm Tracking
New forecast layout! Learn more

10-Day Weather Forecast

Advertisements
Track Severe Weather on mobile